Time;durP1;ratioP1;P1;durP2;ratioP2;P2;SDS_P1;SDS_P2;PMS_P1;PMS_P2;Temp;Humidity;BMP_temperature;BMP_pressure;BME280_temperature;BME280_humidity;BME280_pressure;Samples;Min_cycle;Max_cycle;Signal;HPM_P1;HPM_P2
2022/10/31 00:01:29;;;;;;;11.77;7.73;;;;;;;-141.28;100.00;50314.50;5137008;27;20250;-76
2022/10/31 00:03:56;;;;;;;11.83;6.67;;;;;;;-141.28;100.00;50328.25;5136118;27;20599;-78
2022/10/31 00:06:24;;;;;;;10.43;7.20;;;;;;;-141.28;100.00;50365.53;5136383;27;20214;-77
2022/10/31 00:08:56;;;;;;;12.90;7.43;;;;;;;-141.28;100.00;50357.69;5123808;27;20201;-77
2022/10/31 00:11:23;;;;;;;15.10;7.17;;;;;;;-141.28;100.00;50485.28;5139030;27;20661;-79
2022/10/31 00:13:50;;;;;;;9.17;6.13;;;;;;;-141.28;100.00;50424.44;5133728;27;20725;-77
2022/10/31 00:16:19;;;;;;;9.30;5.80;;;;;;;-141.28;100.00;50404.81;5126021;27;20251;-81
2022/10/31 00:18:50;;;;;;;10.00;5.60;;;;;;;-141.28;100.00;50422.47;5135931;27;20287;-76
2022/10/31 00:21:17;;;;;;;11.17;5.53;;;;;;;-141.28;100.00;50406.75;5135782;27;20195;-77
2022/10/31 00:23:44;;;;;;;10.23;5.63;;;;;;;-141.28;100.00;50393.03;5135036;27;20645;-76
2022/10/31 00:26:13;;;;;;;13.67;6.17;;;;;;;-141.28;100.00;50389.09;5135656;27;20210;-78
2022/10/31 00:28:40;;;;;;;8.43;5.77;;;;;;;-141.28;100.00;50393.03;5134933;27;20206;-78
2022/10/31 00:31:09;;;;;;;14.93;7.23;;;;;;;-141.28;100.00;50402.84;5135674;27;20267;-79
2022/10/31 00:33:39;;;;;;;10.90;7.10;;;;;;;-141.28;100.00;50440.13;5132713;27;20202;-79
2022/10/31 00:36:08;;;;;;;12.77;6.30;;;;;;;-141.28;100.00;50440.13;5135491;27;20259;-79
2022/10/31 00:38:36;;;;;;;13.23;6.30;;;;;;;-141.28;100.00;50424.44;5135925;27;20232;-77
2022/10/31 00:41:03;;;;;;;17.07;7.33;;;;;;;-141.28;100.00;50459.75;5135407;27;20245;-78
2022/10/31 00:43:31;;;;;;;14.33;7.40;;;;;;;-141.28;100.00;50389.09;5135175;27;20262;-77
2022/10/31 00:45:58;;;;;;;12.87;7.73;;;;;;;-141.28;100.00;50432.28;5135454;27;20205;-77
2022/10/31 00:48:25;;;;;;;10.70;7.20;;;;;;;-141.28;100.00;50408.72;5135051;27;20250;-80
2022/10/31 00:50:54;;;;;;;12.13;7.07;;;;;;;-141.28;100.00;50398.91;5135381;27;20198;-80
2022/10/31 00:53:21;;;;;;;14.70;7.10;;;;;;;-141.28;100.00;50365.53;5134431;27;20205;-76
2022/10/31 00:55:48;;;;;;;13.43;7.10;;;;;;;-141.28;100.00;50330.22;5135185;27;20563;-76
2022/10/31 00:58:15;;;;;;;14.33;7.63;;;;;;;-141.28;100.00;50289.00;5135738;27;20226;-79
2022/10/31 01:00:44;;;;;;;10.43;6.60;;;;;;;-141.28;100.00;50224.22;5135315;27;20198;-77
2022/10/31 01:03:11;;;;;;;14.00;6.87;;;;;;;-141.28;100.00;49870.94;5135327;27;20211;-76
2022/10/31 01:05:37;;;;;;;17.80;7.57;;;;;;;-141.28;100.00;49843.47;5134988;27;20214;-79
2022/10/31 01:08:05;;;;;;;10.23;6.50;;;;;;;-141.28;100.00;49894.50;5135196;27;20223;-77
2022/10/31 01:10:33;;;;;;;11.10;7.00;;;;;;;-141.28;100.00;49865.06;5135169;27;20652;-77
2022/10/31 01:12:59;;;;;;;12.20;6.57;;;;;;;-141.28;100.00;49808.16;5135169;27;20226;-79
2022/10/31 01:15:26;;;;;;;13.30;7.10;;;;;;;-141.28;100.00;49713.94;5134921;27;20664;-77
2022/10/31 01:17:54;;;;;;;16.57;7.27;;;;;;;-141.28;100.00;49698.25;5121313;27;20198;-76
2022/10/31 01:20:22;;;;;;;17.50;7.23;;;;;;;-141.28;100.00;49745.34;5135545;27;20222;-78
2022/10/31 01:22:48;;;;;;;12.37;6.50;;;;;;;-141.28;100.00;49668.81;5135220;27;20259;-77
2022/10/31 01:25:15;;;;;;;13.00;6.87;;;;;;;-141.28;100.00;49621.72;5134923;27;20202;-77
2022/10/31 01:27:43;;;;;;;15.00;7.00;;;;;;;-141.28;100.00;49588.34;5137366;27;20242;-78
2022/10/31 01:30:12;;;;;;;14.50;7.50;;;;;;;-141.28;100.00;49580.50;5136154;27;20623;-74
2022/10/31 01:32:38;;;;;;;11.73;7.10;;;;;;;-141.28;100.00;49574.63;5135217;27;20704;-76
2022/10/31 01:35:07;;;;;;;14.07;7.00;;;;;;;-141.28;100.00;49607.97;5134614;27;20202;-77
2022/10/31 01:37:34;;;;;;;12.90;6.80;;;;;;;-141.28;100.00;49568.75;5134393;27;20649;-76
2022/10/31 01:40:01;;;;;;;15.00;7.40;;;;;;;-141.28;100.00;49564.81;5135144;27;20690;-77
2022/10/31 01:42:28;;;;;;;12.83;7.20;;;;;;;-141.28;100.00;49541.25;5127168;27;20198;-76
2022/10/31 01:44:59;;;;;;;11.70;6.80;;;;;;;-141.28;100.00;49592.28;5135280;27;20198;-76
2022/10/31 01:47:39;;;;;;;13.20;7.60;;;;;;;-141.28;100.00;49600.13;5134955;27;20198;-76
2022/10/31 01:50:14;;;;;;;15.57;8.00;;;;;;;-141.28;100.00;49621.72;5133997;27;20200;-76
2022/10/31 01:52:43;;;;;;;15.27;7.87;;;;;;;-141.28;100.00;49678.63;5134753;27;20197;-76
2022/10/31 01:55:16;;;;;;;14.77;8.10;;;;;;;-141.28;100.00;49706.09;5120299;27;20220;-76
2022/10/31 01:57:47;;;;;;;11.30;7.60;;;;;;;-141.28;100.00;49745.34;5134885;27;20251;-77
2022/10/31 02:00:15;;;;;;;14.77;8.13;;;;;;;-141.28;100.00;49694.31;5134021;27;20671;-78
2022/10/31 02:02:45;;;;;;;17.07;8.10;;;;;;;-141.28;100.00;49659.00;5134171;27;20702;-77
2022/10/31 02:05:19;;;;;;;17.73;7.73;;;;;;;-141.28;100.00;49647.22;5133804;27;20270;-76
2022/10/31 02:07:52;;;;;;;13.60;7.63;;;;;;;-141.28;100.00;49627.59;5134403;27;20259;-76
2022/10/31 02:10:21;;;;;;;13.80;7.03;;;;;;;-141.28;100.00;49662.94;5134178;27;20577;-77
2022/10/31 02:12:48;;;;;;;12.13;6.83;;;;;;;-141.28;100.00;49651.16;5133590;27;20211;-78
2022/10/31 02:15:15;;;;;;;13.23;7.23;;;;;;;-141.28;100.00;49600.13;5134475;27;20202;-78
2022/10/31 02:17:42;;;;;;;18.67;7.43;;;;;;;-141.28;100.00;49568.75;5115452;27;20210;-75
2022/10/31 02:20:21;;;;;;;10.07;7.03;;;;;;;-141.28;100.00;49572.66;5134013;27;20222;-79
2022/10/31 02:23:21;;;;;;;11.00;6.77;;;;;;;-141.28;100.00;49643.31;5133873;27;20649;-76
2022/10/31 02:26:26;;;;;;;10.23;6.30;;;;;;;-141.28;100.00;49694.31;5133734;27;20626;-75
2022/10/31 02:29:21;;;;;;;11.60;6.00;;;;;;;-141.28;100.00;49666.84;5121339;27;20579;-80
2022/10/31 02:31:59;;;;;;;15.63;6.40;;;;;;;-141.28;100.00;49682.56;5133818;27;20202;-77
2022/10/31 02:34:33;;;;;;;11.57;5.97;;;;;;;-141.28;100.00;49678.63;5137519;27;20198;-76
2022/10/31 02:37:07;;;;;;;12.00;6.87;;;;;;;-141.28;100.00;49686.47;5138986;27;20205;-78
2022/10/31 02:39:41;;;;;;;13.30;6.20;;;;;;;-141.28;100.00;49659.00;5139502;27;20576;-74
2022/10/31 02:42:19;;;;;;;13.03;6.70;;;;;;;-141.28;100.00;49651.16;5138936;27;20195;-75
2022/10/31 02:44:52;;;;;;;12.50;7.63;;;;;;;-141.28;100.00;49698.25;5138765;27;20206;-76
2022/10/31 02:47:28;;;;;;;10.97;7.07;;;;;;;-141.28;100.00;49666.84;5121637;27;20222;-78
2022/10/31 02:50:00;;;;;;;12.73;7.33;;;;;;;-141.28;100.00;49635.47;5133998;27;20635;-76
2022/10/31 02:52:29;;;;;;;13.23;8.20;;;;;;;-141.28;100.00;49615.84;5134381;27;20554;-75
2022/10/31 02:54:56;;;;;;;12.60;7.43;;;;;;;-141.28;100.00;49596.22;5133324;27;20676;-74
2022/10/31 02:57:26;;;;;;;16.77;8.77;;;;;;;-141.28;100.00;49572.66;5133594;27;20194;-75
2022/10/31 02:59:56;;;;;;;14.97;8.60;;;;;;;-141.28;100.00;49547.16;5133132;27;20574;-75
2022/10/31 03:03:01;;;;;;;15.07;8.50;;;;;;;-141.28;100.00;49562.84;5133820;27;20202;-76
2022/10/31 03:05:45;;;;;;;16.17;7.50;;;;;;;-141.28;100.00;49635.47;5091618;27;20620;-78
2022/10/31 03:08:21;;;;;;;12.97;7.00;;;;;;;-141.28;100.00;49621.72;5132592;27;20202;-79
2022/10/31 03:10:55;;;;;;;16.53;7.03;;;;;;;-141.28;100.00;49609.94;5132896;27;20590;-76
2022/10/31 03:13:33;;;;;;;13.53;7.33;;;;;;;-141.28;100.00;49655.09;5132844;27;20270;-76
2022/10/31 03:16:07;;;;;;;16.53;7.20;;;;;;;-141.28;100.00;49604.06;5132351;27;20194;-78
2022/10/31 03:18:41;;;;;;;12.23;7.20;;;;;;;-141.28;100.00;49580.50;5132778;27;20300;-79
2022/10/31 03:21:12;;;;;;;14.73;7.00;;;;;;;-141.28;100.00;49551.06;5132668;28;20194;-79
2022/10/31 03:23:41;;;;;;;11.53;7.23;;;;;;;-141.28;100.00;49531.44;5133367;28;20228;-77
2022/10/31 03:26:12;;;;;;;10.90;6.90;;;;;;;-141.28;100.00;49484.34;5132923;28;20202;-75
2022/10/31 03:28:44;;;;;;;14.00;7.00;;;;;;;-141.28;100.00;49447.06;5132498;28;20194;-78
2022/10/31 03:31:17;;;;;;;15.43;6.80;;;;;;;-141.28;100.00;49443.16;5132342;28;20198;-79
2022/10/31 03:33:48;;;;;;;11.47;5.97;;;;;;;-141.28;100.00;49439.22;5133017;28;20194;-78
2022/10/31 03:36:17;;;;;;;12.67;7.30;;;;;;;-141.28;100.00;49421.56;5133256;28;20258;-78
2022/10/31 03:38:46;;;;;;;13.67;7.03;;;;;;;-141.28;100.00;49396.06;5132692;28;20198;-78
2022/10/31 03:41:19;;;;;;;13.70;7.37;;;;;;;-141.28;100.00;49451.00;5132254;28;20198;-76
2022/10/31 03:43:52;;;;;;;13.43;7.13;;;;;;;-141.28;100.00;49490.25;5132561;28;20194;-75
2022/10/31 03:46:20;;;;;;;13.70;7.10;;;;;;;-141.28;100.00;49494.16;5132805;28;20213;-80
2022/10/31 03:48:49;;;;;;;13.27;6.90;;;;;;;-141.28;100.00;49454.94;5132923;28;20203;-76
2022/10/31 03:51:23;;;;;;;14.00;7.23;;;;;;;-141.28;100.00;49443.16;5132511;28;20202;-76
2022/10/31 03:53:56;;;;;;;13.40;7.00;;;;;;;-141.28;100.00;49492.22;5132717;28;20629;-77
2022/10/31 03:56:30;;;;;;;14.27;7.47;;;;;;;-141.28;100.00;49460.81;5132227;28;20687;-79
2022/10/31 03:59:01;;;;;;;16.30;7.70;;;;;;;-141.28;100.00;49472.59;5131984;28;20613;-75
2022/10/31 04:01:31;;;;;;;12.30;7.07;;;;;;;-141.28;100.00;49505.94;5136644;28;20258;-77
2022/10/31 04:04:00;;;;;;;16.23;7.40;;;;;;;-141.28;100.00;49521.63;5132503;28;20254;-78
2022/10/31 04:06:28;;;;;;;26.03;8.40;;;;;;;-141.28;100.00;49454.94;5132690;28;20367;-78
2022/10/31 04:08:59;;;;;;;15.20;7.03;;;;;;;-141.28;100.00;49470.63;5132267;28;20225;-75
2022/10/31 04:11:30;;;;;;;14.50;7.40;;;;;;;-141.28;100.00;49521.63;5132729;28;20612;-81
2022/10/31 04:13:59;;;;;;;12.00;7.13;;;;;;;-141.28;100.00;49494.16;5132750;28;20238;-77
2022/10/31 04:16:28;;;;;;;18.00;7.33;;;;;;;-141.28;100.00;49498.09;5132611;28;20262;-77
2022/10/31 04:18:55;;;;;;;13.60;7.53;;;;;;;-141.28;100.00;49541.25;5132224;28;20203;-81
2022/10/31 04:21:28;;;;;;;15.87;7.50;;;;;;;-141.28;100.00;49545.19;5132200;28;20221;-77
2022/10/31 04:23:55;;;;;;;28.20;8.30;;;;;;;-141.28;100.00;49584.44;5131487;28;20638;-80
2022/10/31 04:26:22;;;;;;;17.07;9.17;;;;;;;-141.28;100.00;49545.19;5132400;27;20206;-80
2022/10/31 04:28:49;;;;;;;22.53;8.83;;;;;;;-141.28;100.00;49515.75;5136166;27;20198;-76
2022/10/31 04:31:16;;;;;;;22.37;8.00;;;;;;;-141.28;100.00;49507.91;5135565;27;20279;-77
2022/10/31 04:33:42;;;;;;;23.60;8.33;;;;;;;-141.28;100.00;49505.94;5135855;27;20266;-76
2022/10/31 04:36:09;;;;;;;20.23;7.80;;;;;;;-141.28;100.00;49515.75;5135790;27;20629;-80
2022/10/31 04:38:38;;;;;;;15.37;8.33;;;;;;;-141.28;100.00;49513.78;5137157;27;20206;-75
2022/10/31 04:41:07;;;;;;;19.30;8.87;;;;;;;-141.28;100.00;49519.69;5143166;27;20298;-75
2022/10/31 04:43:33;;;;;;;24.73;8.97;;;;;;;-141.28;100.00;49592.28;5143114;27;20194;-74
2022/10/31 04:46:00;;;;;;;14.43;8.03;;;;;;;-141.28;100.00;49537.34;5144182;27;20640;-75
2022/10/31 04:48:27;;;;;;;18.63;8.57;;;;;;;-141.28;100.00;49533.41;5142325;27;20198;-75
2022/10/31 04:51:00;;;;;;;22.07;9.00;;;;;;;-141.28;100.00;49527.53;5143493;27;20206;-76
2022/10/31 04:53:27;;;;;;;16.67;8.13;;;;;;;-141.28;100.00;49547.16;5143017;27;20206;-76
2022/10/31 04:55:55;;;;;;;16.50;8.27;;;;;;;-141.28;100.00;49556.97;5142979;27;20197;-75
2022/10/31 04:58:22;;;;;;;12.90;7.20;;;;;;;-141.28;100.00;49515.75;5138712;27;20230;-75
2022/10/31 05:00:53;;;;;;;13.63;6.50;;;;;;;-141.28;100.00;49513.78;5141893;27;20237;-74
2022/10/31 05:03:20;;;;;;;12.47;6.57;;;;;;;-141.28;100.00;49509.88;5143364;27;20199;-75
2022/10/31 05:05:47;;;;;;;16.43;7.37;;;;;;;-141.28;100.00;49503.97;5141199;27;20309;-75
2022/10/31 05:08:15;;;;;;;21.73;7.77;;;;;;;-141.28;100.00;49525.56;5140216;27;20206;-75
2022/10/31 05:10:42;;;;;;;18.20;7.67;;;;;;;-141.28;100.00;49529.50;5141878;27;20210;-76
2022/10/31 05:13:14;;;;;;;15.20;7.27;;;;;;;-141.28;100.00;49564.81;5138691;27;20244;-76
2022/10/31 05:15:41;;;;;;;20.60;9.00;;;;;;;-141.28;100.00;49513.78;5136595;27;20198;-79
2022/10/31 05:18:08;;;;;;;17.57;9.30;;;;;;;-141.28;100.00;49515.75;5140664;27;20594;-75
2022/10/31 05:20:35;;;;;;;17.30;9.30;;;;;;;-141.28;100.00;49519.69;5139384;27;20251;-78
2022/10/31 05:23:02;;;;;;;24.70;9.13;;;;;;;-141.28;100.00;49503.97;5137938;27;20217;-77
2022/10/31 05:25:30;;;;;;;20.47;8.43;;;;;;;-141.28;100.00;49451.00;5137808;27;20676;-75
2022/10/31 05:27:57;;;;;;;20.20;10.83;;;;;;;-141.28;100.00;49409.78;5136129;27;20642;-76
2022/10/31 05:30:27;;;;;;;33.67;14.77;;;;;;;-141.28;100.00;49403.91;5135061;27;20266;-75
2022/10/31 05:32:54;;;;;;;26.37;14.03;;;;;;;-141.28;100.00;49462.78;5135100;27;20228;-76
2022/10/31 05:35:24;;;;;;;22.60;11.27;;;;;;;-141.28;100.00;49502.03;5134761;27;20198;-76
2022/10/31 05:37:51;;;;;;;35.87;14.73;;;;;;;-141.28;100.00;49503.97;5135572;27;20203;-74
2022/10/31 05:40:20;;;;;;;52.07;14.50;;;;;;;-141.28;100.00;49564.81;5136147;27;20222;-76
2022/10/31 05:42:47;;;;;;;48.03;14.83;;;;;;;-141.28;100.00;49560.88;5116319;27;20655;-76
2022/10/31 05:45:16;;;;;;;56.13;14.23;;;;;;;-141.28;100.00;49553.03;5134755;27;20733;-76
2022/10/31 05:47:51;;;;;;;45.03;18.10;;;;;;;-141.28;100.00;49607.97;5135249;27;20198;-76
2022/10/31 05:50:18;;;;;;;46.40;18.17;;;;;;;-141.28;100.00;49702.19;5134280;27;20725;-78
2022/10/31 05:52:45;;;;;;;50.57;22.43;;;;;;;-141.28;100.00;49804.22;5134151;27;20235;-77
2022/10/31 05:55:13;;;;;;;38.93;15.03;;;;;;;-141.28;100.00;50106.47;5134345;27;20199;-80
2022/10/31 05:57:40;;;;;;;32.27;11.50;;;;;;;-141.28;100.00;50318.44;5133984;27;20264;-76
2022/10/31 06:00:08;;;;;;;37.63;13.07;;;;;;;-141.28;100.00;49886.66;5134028;27;20696;-79
2022/10/31 06:02:35;;;;;;;35.93;13.53;;;;;;;-141.28;100.00;49417.63;5133758;27;20198;-76
2022/10/31 06:05:04;;;;;;;41.87;12.97;;;;;;;-141.28;100.00;49286.16;5133395;27;20222;-79
2022/10/31 06:07:34;;;;;;;39.17;14.20;;;;;;;-141.28;100.00;49229.28;5133408;27;20218;-78
2022/10/31 06:10:01;;;;;;;54.47;14.87;;;;;;;-141.28;100.00;49246.94;5133825;27;20743;-79
2022/10/31 06:12:28;;;;;;;57.03;15.70;;;;;;;-141.28;100.00;49148.81;5133072;27;20293;-78
2022/10/31 06:14:55;;;;;;;49.97;20.37;;;;;;;-141.28;100.00;49396.06;5133938;27;20230;-77
2022/10/31 06:17:22;;;;;;;50.60;21.97;;;;;;;-141.28;100.00;49278.31;5133732;27;20198;-78
2022/10/31 06:19:49;;;;;;;33.00;15.13;;;;;;;-141.28;100.00;49348.97;5133734;27;20206;-75
2022/10/31 06:22:17;;;;;;;32.07;13.00;;;;;;;-141.28;100.00;49360.75;5133550;27;20278;-75
2022/10/31 06:24:44;;;;;;;53.00;14.80;;;;;;;-141.28;100.00;49399.97;5134170;27;20285;-77
2022/10/31 06:27:11;;;;;;;34.97;11.87;;;;;;;-141.28;100.00;49466.69;5133385;27;20198;-78
2022/10/31 06:29:38;;;;;;;31.30;10.93;;;;;;;-141.28;100.00;49462.78;5133602;27;20259;-76
2022/10/31 06:32:06;;;;;;;35.30;11.10;;;;;;;-141.28;100.00;49423.53;5133486;27;20230;-80
2022/10/31 06:34:32;;;;;;;34.90;12.33;;;;;;;-141.28;100.00;49449.03;5134122;27;20259;-75
2022/10/31 06:37:01;;;;;;;44.93;12.13;;;;;;;-141.28;100.00;49466.69;5135555;27;20198;-78
2022/10/31 06:39:29;;;;;;;45.37;10.33;;;;;;;-141.28;100.00;49525.56;5134072;27;20293;-79
2022/10/31 06:41:56;;;;;;;58.77;11.73;;;;;;;-141.28;100.00;49551.06;5133153;27;20594;-79
2022/10/31 06:44:23;;;;;;;57.03;11.13;;;;;;;-141.28;100.00;49539.31;5133493;27;20198;-76
2022/10/31 06:46:50;;;;;;;45.87;10.77;;;;;;;-141.28;100.00;49490.25;5133219;27;20194;-75
2022/10/31 06:49:17;;;;;;;50.70;10.50;;;;;;;-141.28;100.00;49466.69;5133482;27;20206;-76
2022/10/31 06:51:44;;;;;;;42.53;11.40;;;;;;;-141.28;100.00;49443.16;5134331;27;20266;-76
2022/10/31 06:54:11;;;;;;;34.17;10.97;;;;;;;-141.28;100.00;49466.69;5133410;27;20207;-76
2022/10/31 06:56:39;;;;;;;49.03;11.43;;;;;;;-141.28;100.00;49411.75;5132984;27;20198;-75
2022/10/31 06:59:06;;;;;;;30.17;11.17;;;;;;;-141.28;100.00;49396.06;5132825;27;20206;-79
2022/10/31 07:01:33;;;;;;;26.30;9.83;;;;;;;-141.28;100.00;49392.13;5132795;27;20723;-77
2022/10/31 07:04:00;;;;;;;32.07;10.53;;;;;;;-141.28;100.00;49403.91;5132780;27;20202;-76
2022/10/31 07:06:27;;;;;;;23.97;9.80;;;;;;;-141.28;100.00;49348.97;5132738;27;20228;-76
2022/10/31 07:08:54;;;;;;;20.07;10.10;;;;;;;-141.28;100.00;49390.16;5132701;27;20281;-76
2022/10/31 07:11:20;;;;;;;23.40;10.40;;;;;;;-141.28;100.00;49384.28;5119621;27;20263;-76
2022/10/31 07:13:49;;;;;;;29.10;11.40;;;;;;;-141.28;100.00;49403.91;5132833;27;20583;-78
2022/10/31 07:16:16;;;;;;;24.47;10.70;;;;;;;-141.28;100.00;49372.50;5120749;27;20254;-77
2022/10/31 07:18:43;;;;;;;30.30;12.23;;;;;;;-141.28;100.00;49364.66;5132040;27;20194;-78
2022/10/31 07:21:11;;;;;;;30.40;10.77;;;;;;;-141.28;100.00;49368.59;5132778;27;20271;-77
2022/10/31 07:23:39;;;;;;;21.20;10.60;;;;;;;-141.28;100.00;49347.00;5131422;28;20202;-77
2022/10/31 07:26:06;;;;;;;24.63;11.13;;;;;;;-141.28;100.00;49274.41;5132968;28;20198;-76
2022/10/31 07:28:32;;;;;;;26.07;11.33;;;;;;;-141.28;100.00;49321.50;5132170;28;20198;-76
2022/10/31 07:31:01;;;;;;;22.47;11.07;;;;;;;-141.28;100.00;49207.69;5132502;28;20228;-76
2022/10/31 07:33:28;;;;;;;21.57;10.90;;;;;;;-141.28;100.00;49250.84;5132665;28;20202;-80
2022/10/31 07:35:55;;;;;;;20.90;10.40;;;;;;;-141.28;100.00;49301.88;5132878;28;20292;-76
2022/10/31 07:38:22;;;;;;;22.47;11.57;;;;;;;-141.28;100.00;49282.25;5132629;28;20222;-78
2022/10/31 07:40:52;;;;;;;19.63;10.53;;;;;;;-141.28;100.00;49258.69;5132337;28;20721;-76
2022/10/31 07:43:19;;;;;;;21.03;11.00;;;;;;;-141.28;100.00;49309.72;5132398;28;20198;-75
2022/10/31 07:45:51;;;;;;;17.80;10.23;;;;;;;-141.28;100.00;49435.31;5132767;28;20251;-75
2022/10/31 07:48:20;;;;;;;18.63;10.27;;;;;;;-141.28;100.00;49372.50;5132385;28;20290;-76
2022/10/31 07:50:47;;;;;;;17.07;10.40;;;;;;;-141.28;100.00;49398.03;5132390;28;20247;-76
2022/10/31 07:53:15;;;;;;;20.60;11.20;;;;;;;-141.28;100.00;49392.13;5135105;28;20239;-76
2022/10/31 07:55:42;;;;;;;25.33;10.33;;;;;;;-141.28;100.00;49341.13;5132885;28;20270;-76
2022/10/31 07:58:10;;;;;;;27.77;11.60;;;;;;;-141.28;100.00;49303.84;5131622;28;20206;-76
2022/10/31 08:00:40;;;;;;;21.43;10.87;;;;;;;-141.28;100.00;49217.50;5132919;28;20230;-77
2022/10/31 08:03:09;;;;;;;18.97;10.80;;;;;;;-141.28;100.00;49231.22;5135748;27;20194;-76
2022/10/31 08:05:38;;;;;;;23.90;11.27;;;;;;;-141.28;100.00;49439.22;5136660;27;20222;-76
2022/10/31 08:08:06;;;;;;;19.93;10.43;;;;;;;-141.28;100.00;49188.06;5135938;27;20202;-76
2022/10/31 08:10:33;;;;;;;19.40;9.77;;;;;;;-141.28;100.00;49125.28;5136125;27;20561;-79
2022/10/31 08:13:03;;;;;;;20.43;10.90;;;;;;;-141.28;100.00;49199.84;5137726;27;20226;-76
2022/10/31 08:15:30;;;;;;;20.13;10.10;;;;;;;-141.28;100.00;49192.00;5137696;27;20198;-76
2022/10/31 08:17:57;;;;;;;22.03;10.87;;;;;;;-141.28;100.00;49058.56;5136450;27;20687;-79
2022/10/31 08:20:24;;;;;;;24.53;10.40;;;;;;;-141.28;100.00;49105.66;5136566;27;20672;-77
2022/10/31 08:22:57;;;;;;;20.67;10.50;;;;;;;-141.28;100.00;49201.81;5136260;27;20551;-76
2022/10/31 08:25:25;;;;;;;17.80;10.80;;;;;;;-141.28;100.00;49144.91;5137014;27;20212;-78
2022/10/31 08:27:54;;;;;;;25.10;10.87;;;;;;;-141.28;100.00;49176.28;5136058;27;20190;-79
2022/10/31 08:30:22;;;;;;;20.57;10.77;;;;;;;-141.28;100.00;49172.38;5135968;27;20676;-83
2022/10/31 08:32:57;;;;;;;24.37;11.20;;;;;;;-141.28;100.00;49113.50;5135739;27;20209;-77
2022/10/31 08:35:24;;;;;;;22.03;10.87;;;;;;;-141.28;100.00;49152.75;5135569;27;20205;-78
2022/10/31 08:37:53;;;;;;;22.83;11.53;;;;;;;-141.28;100.00;49223.38;5127607;27;20252;-77
2022/10/31 08:40:22;;;;;;;16.80;11.37;;;;;;;-141.28;100.00;49215.53;5131220;27;20289;-78
2022/10/31 08:42:57;;;;;;;20.67;11.93;;;;;;;-141.28;100.00;49239.09;5135601;27;20259;-76
2022/10/31 08:45:24;;;;;;;25.70;12.17;;;;;;;-141.28;100.00;49388.22;5135199;27;20615;-77
2022/10/31 08:47:51;;;;;;;22.67;12.03;;;;;;;-141.28;100.00;49290.09;5135008;27;20202;-78
2022/10/31 08:50:18;;;;;;;18.87;11.83;;;;;;;-141.28;100.00;49156.66;5135477;27;20201;-79
2022/10/31 08:52:45;;;;;;;23.00;12.23;;;;;;;-141.28;100.00;49294.03;5135316;27;20210;-76
2022/10/31 08:55:12;;;;;;;23.13;12.50;;;;;;;-141.28;100.00;49301.88;5135213;27;20209;-77
2022/10/31 08:57:42;;;;;;;25.77;12.97;;;;;;;-141.28;100.00;49286.16;5116491;27;20210;-76
2022/10/31 09:00:10;;;;;;;27.03;12.33;;;;;;;-141.28;100.00;49294.03;5134947;27;20198;-77
2022/10/31 09:02:38;;;;;;;21.60;13.27;;;;;;;-141.28;100.00;49305.78;5134544;27;20233;-77
2022/10/31 09:05:05;;;;;;;21.00;12.23;;;;;;;-141.28;100.00;49258.69;5135034;27;20629;-77
2022/10/31 09:07:32;;;;;;;23.20;12.03;;;;;;;-141.28;100.00;49223.38;5134742;27;20202;-78
2022/10/31 09:09:59;;;;;;;23.90;12.73;;;;;;;-141.28;100.00;49229.28;5136506;27;20198;-77
2022/10/31 09:12:26;;;;;;;25.83;12.90;;;;;;;-141.28;100.00;49317.56;5135991;27;20206;-76
2022/10/31 09:14:54;;;;;;;22.80;12.43;;;;;;;-141.28;100.00;49205.72;5133994;27;20278;-77
2022/10/31 09:17:21;;;;;;;18.67;11.87;;;;;;;-141.28;100.00;49180.22;5134297;27;20202;-78
2022/10/31 09:19:48;;;;;;;27.27;13.13;;;;;;;-141.28;100.00;49174.34;5134771;27;20568;-76
2022/10/31 09:22:15;;;;;;;25.90;12.00;;;;;;;-141.28;100.00;49176.28;5133799;27;20262;-78
2022/10/31 09:24:42;;;;;;;22.67;12.37;;;;;;;-141.28;100.00;49192.00;5134619;27;20203;-79
2022/10/31 09:27:09;;;;;;;28.93;12.93;;;;;;;-141.28;100.00;49186.09;5134167;27;20198;-76
2022/10/31 09:29:36;;;;;;;21.27;12.50;;;;;;;-141.28;100.00;49129.19;5134284;27;20630;-79
2022/10/31 09:32:05;;;;;;;18.07;11.10;;;;;;;-141.28;100.00;49129.19;5134161;27;20194;-79
2022/10/31 09:34:32;;;;;;;24.20;12.10;;;;;;;-141.28;100.00;49086.03;5134210;27;20198;-77
2022/10/31 09:36:59;;;;;;;21.27;11.63;;;;;;;-141.28;99.76;49086.03;5133999;27;20247;-77
2022/10/31 09:39:26;;;;;;;21.20;11.37;;;;;;;-141.28;98.76;49082.13;5134367;27;20294;-80
2022/10/31 09:42:07;;;;;;;24.37;10.90;;;;;;;-141.28;97.72;48921.22;5133837;27;20215;-79
2022/10/31 09:44:45;;;;;;;21.07;10.50;;;;;;;-141.28;87.64;49031.09;5135647;27;20636;-78
2022/10/31 09:47:23;;;;;;;24.63;11.67;;;;;;;-141.28;83.52;49035.03;5122220;27;20198;-77
2022/10/31 09:50:08;;;;;;;19.07;10.70;;;;;;;-141.28;81.35;49031.09;5135243;27;20229;-76
2022/10/31 09:52:40;;;;;;;19.10;10.67;;;;;;;-141.28;77.11;49015.41;5135436;27;20669;-76
2022/10/31 09:55:14;;;;;;;17.87;10.33;;;;;;;-141.28;75.08;48909.47;5135583;27;20532;-78
2022/10/31 09:57:43;;;;;;;22.83;11.90;;;;;;;-141.28;73.55;49007.56;5135227;27;20201;-76
2022/10/31 10:00:17;;;;;;;23.30;11.70;;;;;;;-141.28;73.81;48968.31;5134648;27;20235;-80
2022/10/31 10:02:49;;;;;;;17.03;11.00;;;;;;;-141.28;72.70;48972.25;5134427;27;20264;-76
2022/10/31 10:05:23;;;;;;;16.60;10.00;;;;;;;-141.28;74.62;49007.56;5134268;27;20211;-77
2022/10/31 10:08:01;;;;;;;20.40;10.33;;;;;;;-141.28;75.32;49040.91;5135216;27;20206;-77
2022/10/31 10:10:42;;;;;;;18.13;8.70;;;;;;;-141.28;72.50;48970.28;5122925;27;20248;-76
2022/10/31 10:13:38;;;;;;;16.63;10.40;;;;;;;-141.28;71.03;48952.63;5133690;27;20229;-77
2022/10/31 10:16:15;;;;;;;14.90;9.63;;;;;;;-141.28;70.36;48960.47;5133473;27;20289;-77
2022/10/31 10:19:00;;;;;;;16.90;8.33;;;;;;;-141.28;66.28;48905.53;5133603;27;20226;-76
2022/10/31 10:21:38;;;;;;;17.00;8.10;;;;;;;-141.28;64.98;48917.31;5132872;27;20222;-76
2022/10/31 10:24:18;;;;;;;19.50;7.07;;;;;;;-141.28;65.87;48925.16;5132936;27;20392;-75
2022/10/31 10:26:55;;;;;;;12.53;7.60;;;;;;;-141.28;64.36;48948.69;5124848;27;20204;-76
2022/10/31 10:29:35;;;;;;;12.67;6.83;;;;;;;-141.28;64.03;48903.56;5131863;27;20199;-76
2022/10/31 10:32:10;;;;;;;13.10;5.40;;;;;;;-141.28;62.26;48895.72;5133118;27;20254;-78
2022/10/31 10:34:44;;;;;;;17.17;7.23;;;;;;;-141.28;64.21;49580.50;5120943;27;20205;-76
2022/10/31 10:37:23;;;;;;;13.53;7.13;;;;;;;-141.28;63.82;48948.69;5132981;27;20202;-77
2022/10/31 10:39:54;;;;;;;16.27;6.37;;;;;;;-141.28;62.55;48899.66;5133787;27;20199;-76
2022/10/31 10:48:08;;;;;;;14.80;6.57;;;;;;;-141.28;62.68;48917.31;5133185;27;20331;-75
2022/10/31 10:50:40;;;;;;;13.90;5.33;;;;;;;-141.28;65.13;48954.59;5120602;27;20202;-77
2022/10/31 10:53:21;;;;;;;10.73;5.90;;;;;;;-141.28;61.53;48897.69;5132368;27;20665;-77
2022/10/31 10:55:55;;;;;;;10.77;4.90;;;;;;;-141.28;59.04;48874.13;5133130;27;20205;-77
2022/10/31 10:58:22;;;;;;;12.77;6.10;;;;;;;-141.28;59.20;48882.00;5132888;27;20204;-78
2022/10/31 11:00:49;;;;;;;12.73;4.80;;;;;;;-141.28;58.39;48868.25;5132991;27;20680;-77
2022/10/31 11:03:18;;;;;;;9.83;5.10;;;;;;;-141.28;57.76;48858.44;5132836;27;20230;-76
2022/10/31 11:05:51;;;;;;;11.53;5.17;;;;;;;-141.28;56.18;48809.41;5132990;27;20223;-76
2022/10/31 11:08:25;;;;;;;10.07;5.00;;;;;;;-141.28;58.25;48897.69;5132981;27;20203;-77
2022/10/31 11:11:03;;;;;;;12.17;4.83;;;;;;;-141.28;61.24;48956.53;5132826;27;20293;-80
2022/10/31 11:13:31;;;;;;;13.17;5.87;;;;;;;-141.28;60.92;48913.38;5133083;27;20229;-80
2022/10/31 11:16:02;;;;;;;11.43;5.03;;;;;;;-141.28;59.08;48882.00;5132295;27;20662;-77
2022/10/31 11:18:34;;;;;;;12.87;4.10;;;;;;;-141.28;57.33;48811.34;5132998;27;20225;-78